Time;durP1;ratioP1;P1;durP2;ratioP2;P2;SDS_P1;SDS_P2;PMS_P1;PMS_P2;Temp;Humidity;BMP_temperature;BMP_pressure;BME280_temperature;BME280_humidity;BME280_pressure;Samples;Min_cycle;Max_cycle;Signal;HPM_P1;HPM_P2
2023/09/07 00:01:30;;;;;;;4.05;3.58;;;18.60;71.40;;;17.73;92.36;96334.50;6118326;23;20020;-72
2023/09/07 00:03:55;;;;;;;6.10;4.15;;;18.60;71.40;;;17.70;92.34;96333.13;6093870;23;20021;-72
2023/09/07 00:06:21;;;;;;;6.00;3.83;;;18.60;71.40;;;17.70;92.54;96332.31;6070092;23;20014;-72
2023/09/07 00:08:47;;;;;;;4.43;3.92;;;18.60;71.40;;;17.68;92.29;96335.19;6118653;23;20070;-71
2023/09/07 00:11:13;;;;;;;5.32;3.70;;;18.60;71.30;;;17.64;92.50;96333.97;6117705;23;20053;-71
2023/09/07 00:13:39;;;;;;;5.78;3.90;;;18.50;71.50;;;17.62;92.67;96330.72;6070754;23;20021;-71
2023/09/07 00:16:04;;;;;;;5.63;4.28;;;18.50;71.40;;;17.59;92.47;96331.19;6094060;23;20041;-71
2023/09/07 00:18:31;;;;;;;4.13;3.72;;;18.50;71.60;;;17.55;91.77;96324.69;6070287;23;20427;-71
2023/09/07 00:20:58;;;;;;;5.63;3.70;;;18.40;71.40;;;17.52;92.36;96322.50;6117420;23;20013;-71
2023/09/07 00:23:23;;;;;;;5.25;4.03;;;18.40;71.30;;;17.49;92.15;96330.13;6094238;23;20333;-71
2023/09/07 00:25:49;;;;;;;4.60;3.55;;;18.40;71.50;;;17.44;92.21;96322.84;6118268;23;20065;-71
2023/09/07 00:28:15;;;;;;;4.78;3.75;;;18.30;71.60;;;17.40;92.09;96333.09;6117792;23;20036;-71
2023/09/07 00:30:43;;;;;;;7.03;4.05;;;18.30;71.70;;;17.38;92.31;96327.19;6069290;23;20141;-71
2023/09/07 00:33:08;;;;;;;4.20;3.45;;;18.30;71.40;;;17.34;92.09;96320.69;6119128;23;20105;-71
2023/09/07 00:35:34;;;;;;;5.82;3.97;;;18.20;71.60;;;17.29;92.71;96328.56;6115418;23;20041;-71
2023/09/07 00:38:00;;;;;;;6.13;3.72;;;18.10;71.50;;;17.24;92.26;96322.28;6117613;23;20064;-71
2023/09/07 00:40:26;;;;;;;5.35;4.10;;;18.10;71.60;;;17.20;92.14;96326.41;6118997;23;20145;-71
2023/09/07 00:42:53;;;;;;;5.60;3.90;;;18.10;71.60;;;17.14;92.56;96323.63;6119797;23;20455;-71
2023/09/07 00:45:18;;;;;;;10.05;4.30;;;18.00;71.50;;;17.08;92.35;96319.22;6093195;23;20010;-71
2023/09/07 00:47:44;;;;;;;6.78;3.95;;;17.90;71.50;;;17.03;92.20;96316.41;6117653;23;20566;-71
2023/09/07 00:50:13;;;;;;;5.57;3.95;;;17.80;71.60;;;16.96;91.81;96318.31;6116859;23;20021;-71
2023/09/07 00:52:40;;;;;;;5.32;4.35;;;17.70;71.70;;;16.90;92.76;96321.88;6094216;23;20025;-70
2023/09/07 00:55:06;;;;;;;6.72;4.10;;;17.70;71.90;;;16.86;92.86;96311.94;6117173;23;20013;-70
2023/09/07 00:57:32;;;;;;;4.55;3.85;;;17.70;71.90;;;16.81;92.60;96312.59;6118175;23;20006;-69
2023/09/07 00:59:58;;;;;;;4.38;3.80;;;17.60;72.20;;;16.79;92.97;96314.69;6093601;23;20010;-72
2023/09/07 01:02:24;;;;;;;4.95;3.92;;;17.60;72.50;;;16.79;93.90;96314.69;6093437;23;20005;-71
2023/09/07 01:04:51;;;;;;;8.45;4.20;;;17.70;72.60;;;16.79;93.85;96309.38;6117916;23;20059;-71
2023/09/07 01:07:37;;;;;;;6.95;4.22;;;17.70;72.70;;;16.78;96.12;96318.38;6092911;23;20439;-71
2023/09/07 01:10:03;;;;;;;6.32;4.22;;;17.60;72.80;;;16.76;94.75;96315.13;6071554;23;20016;-71
2023/09/07 01:12:30;;;;;;;5.25;4.55;;;17.60;72.90;;;16.74;95.25;96317.97;6117730;23;20010;-70
2023/09/07 01:14:56;;;;;;;5.65;4.22;;;17.60;73.20;;;16.75;95.32;96313.50;6117856;23;20180;-70
2023/09/07 01:17:22;;;;;;;5.28;4.28;;;17.60;73.00;;;16.75;95.14;96310.84;6118059;23;20008;-70
2023/09/07 01:19:51;;;;;;;7.07;3.88;;;17.60;73.00;;;16.74;95.47;96306.53;6047689;23;20448;-70
2023/09/07 01:22:24;;;;;;;6.57;4.00;;;17.70;72.90;;;16.73;96.20;96319.00;6119034;23;20085;-70
2023/09/07 01:24:50;;;;;;;6.55;4.38;;;17.60;73.00;;;16.70;95.88;96308.03;6096816;23;20440;-70
2023/09/07 01:27:16;;;;;;;5.70;4.72;;;17.60;73.00;;;16.68;96.12;96310.91;6070972;23;20383;-72
2023/09/07 01:29:42;;;;;;;7.35;4.60;;;17.60;73.00;;;16.65;95.15;96302.53;6071408;23;20444;-72
2023/09/07 01:32:09;;;;;;;5.93;4.60;;;17.60;72.90;;;16.63;96.01;96299.31;6094918;23;20056;-72
2023/09/07 01:34:36;;;;;;;4.82;4.32;;;17.60;73.10;;;16.59;96.13;96298.94;6069688;23;20112;-72
2023/09/07 01:37:01;;;;;;;6.65;4.32;;;17.50;73.30;;;16.57;96.14;96301.00;6095238;23;20006;-72
2023/09/07 01:39:27;;;;;;;6.03;4.10;;;17.40;73.30;;;16.57;96.22;96300.19;6119717;23;20329;-72
2023/09/07 01:41:53;;;;;;;4.95;3.80;;;17.50;73.20;;;16.54;96.45;96304.91;6119730;23;20526;-72
2023/09/07 01:44:19;;;;;;;4.70;4.20;;;17.50;73.40;;;16.52;96.71;96303.47;6121138;23;20013;-72
2023/09/07 01:46:44;;;;;;;6.85;4.43;;;17.40;73.50;;;16.47;96.57;96301.50;6119794;23;20299;-72
2023/09/07 01:49:10;;;;;;;5.00;4.10;;;17.40;73.50;;;16.46;96.69;96307.03;6120583;23;20006;-72
2023/09/07 01:51:36;;;;;;;5.47;4.40;;;17.40;73.50;;;16.44;97.10;96312.56;6094933;23;20014;-72
2023/09/07 01:54:02;;;;;;;5.53;4.10;;;17.30;73.60;;;16.40;97.30;96307.91;6117140;23;20057;-71
2023/09/07 01:56:28;;;;;;;6.07;4.75;;;17.30;73.90;;;16.38;97.51;96308.16;6119649;23;20013;-72
2023/09/07 01:58:53;;;;;;;6.40;4.43;;;17.30;74.10;;;16.34;97.71;96303.50;6120709;23;20017;-72
2023/09/07 02:01:30;;;;;;;6.38;4.22;;;17.20;74.20;;;16.30;99.44;96305.78;6094557;23;20006;-72
2023/09/07 02:03:56;;;;;;;7.53;4.47;;;17.10;74.40;;;16.25;98.52;96297.66;6096043;23;20455;-72
2023/09/07 02:06:22;;;;;;;6.78;4.63;;;17.10;74.40;;;16.21;99.12;96301.78;6095034;23;20017;-72
2023/09/07 02:08:48;;;;;;;5.55;4.60;;;17.10;74.50;;;16.16;98.94;96294.47;6119233;23;20017;-72
2023/09/07 02:11:14;;;;;;;6.03;4.97;;;17.10;74.70;;;16.11;99.27;96296.16;6118508;23;20080;-72
2023/09/07 02:13:43;;;;;;;5.47;4.68;;;17.00;74.70;;;16.07;100.00;96301.09;6095026;23;20457;-70
2023/09/07 02:16:09;;;;;;;7.28;4.70;;;17.00;74.80;;;16.03;99.73;96293.78;6118999;23;20021;-70
2023/09/07 02:18:37;;;;;;;6.40;5.10;;;17.00;74.90;;;16.00;100.00;96297.69;6094935;23;20014;-70
2023/09/07 02:21:03;;;;;;;6.57;4.45;;;16.90;75.00;;;15.98;100.00;96302.41;6094447;23;20045;-70
2023/09/07 02:23:33;;;;;;;5.82;4.75;;;16.90;75.00;;;15.96;100.00;96298.34;6070462;23;20100;-70
2023/09/07 02:25:59;;;;;;;5.45;4.40;;;16.80;75.10;;;15.93;100.00;96302.25;6094707;23;20033;-70
2023/09/07 02:28:25;;;;;;;6.53;4.97;;;16.80;75.20;;;15.90;100.00;96294.72;6093997;23;20014;-71
2023/09/07 02:30:51;;;;;;;6.30;4.97;;;16.80;75.20;;;15.86;100.00;96299.66;6118373;23;20352;-71
2023/09/07 02:33:17;;;;;;;5.55;5.00;;;16.80;75.40;;;15.83;100.00;96310.66;6118647;23;20018;-72
2023/09/07 02:35:43;;;;;;;6.22;4.85;;;16.70;75.50;;;15.82;100.00;96314.34;6116486;23;20475;-71
2023/09/07 02:38:09;;;;;;;7.03;5.00;;;16.60;75.50;;;15.80;100.00;96305.81;6120299;23;20467;-71
2023/09/07 02:40:42;;;;;;;7.18;5.28;;;16.60;75.60;;;15.78;100.00;96307.88;6118881;23;20006;-70
2023/09/07 02:43:08;;;;;;;7.32;5.15;;;16.70;75.70;;;15.75;100.00;96310.94;6095120;23;20477;-70
2023/09/07 02:45:34;;;;;;;5.63;4.90;;;16.70;75.70;;;15.73;100.00;96310.34;6119364;23;20013;-71
2023/09/07 02:48:00;;;;;;;8.45;4.75;;;16.60;75.80;;;15.75;100.00;96315.44;6119154;23;20036;-71
2023/09/07 02:50:26;;;;;;;6.00;4.60;;;16.70;75.90;;;15.75;100.00;96312.78;6118261;23;20852;-71
2023/09/07 02:52:51;;;;;;;5.28;4.78;;;16.70;75.90;;;15.74;100.00;96317.28;6120392;23;20010;-70
2023/09/07 02:55:17;;;;;;;5.95;4.82;;;16.70;75.80;;;15.74;100.00;96317.28;6094849;23;20045;-70
2023/09/07 02:57:43;;;;;;;7.60;5.30;;;16.70;75.80;;;15.69;100.00;96319.78;6118927;23;20032;-70
2023/09/07 03:00:09;;;;;;;7.55;5.35;;;16.60;76.10;;;15.66;100.00;96306.94;6119707;23;20394;-72
2023/09/07 03:02:35;;;;;;;5.45;4.70;;;16.50;76.10;;;15.64;100.00;96305.53;6070488;23;20444;-70
2023/09/07 03:05:02;;;;;;;6.47;4.90;;;16.50;76.10;;;15.60;100.00;96313.09;6070661;23;20540;-70
2023/09/07 03:07:32;;;;;;;6.80;5.40;;;16.50;76.20;;;15.57;100.00;96313.50;6118607;23;20038;-71
2023/09/07 03:09:57;;;;;;;5.82;5.22;;;16.50;76.10;;;15.52;100.00;96308.03;6093881;23;20005;-71
2023/09/07 03:12:23;;;;;;;6.95;5.30;;;16.40;76.30;;;15.50;100.00;96315.38;6093658;23;20135;-70
2023/09/07 03:14:50;;;;;;;7.10;4.95;;;16.40;76.30;;;15.47;100.00;96313.16;6119712;23;20025;-71
2023/09/07 03:17:17;;;;;;;5.90;5.13;;;16.40;76.30;;;15.45;100.00;96316.03;6118299;23;20013;-70
2023/09/07 03:19:43;;;;;;;6.70;5.18;;;16.30;76.40;;;15.43;100.00;96310.13;6118113;23;20050;-71
2023/09/07 03:22:09;;;;;;;6.32;5.07;;;16.30;76.50;;;15.40;100.00;96317.72;6093529;23;20006;-70
2023/09/07 03:24:35;;;;;;;6.93;5.68;;;16.30;76.50;;;15.33;100.00;96315.88;6093837;23;20088;-71
2023/09/07 03:27:01;;;;;;;8.07;6.93;;;16.20;76.60;;;15.29;100.00;96320.00;6070351;23;20623;-71
2023/09/07 03:29:26;;;;;;;16.80;14.25;;;16.20;76.60;;;15.24;100.00;96321.66;6119777;23;20058;-71
2023/09/07 03:31:52;;;;;;;18.42;16.52;;;16.20;76.70;;;15.21;100.00;96322.91;6093858;23;20010;-71
2023/09/07 03:34:19;;;;;;;9.43;7.50;;;16.20;76.70;;;15.18;100.00;96317.22;6091476;23;20021;-71
2023/09/07 03:36:45;;;;;;;17.48;14.50;;;16.20;76.50;;;15.14;100.00;96322.09;6094097;23;20010;-71
2023/09/07 03:39:10;;;;;;;22.10;17.67;;;16.10;76.30;;;15.11;100.00;96311.13;6093479;23;20010;-71
2023/09/07 03:41:36;;;;;;;18.23;15.50;;;16.10;76.30;;;15.08;100.00;96312.38;6118018;23;20002;-71
2023/09/07 03:44:02;;;;;;;12.65;11.35;;;16.10;76.40;;;15.06;100.00;96316.25;6093685;23;20037;-71
2023/09/07 03:46:28;;;;;;;12.45;10.80;;;16.10;76.40;;;15.04;100.00;96311.16;6093666;23;20124;-70
2023/09/07 03:48:54;;;;;;;22.90;19.42;;;16.10;76.50;;;15.04;100.00;96315.66;6093684;23;20045;-70
2023/09/07 03:51:19;;;;;;;43.63;37.30;;;16.10;76.50;;;14.99;100.00;96314.47;6092660;23;20444;-70
2023/09/07 03:53:45;;;;;;;14.80;13.25;;;16.00;76.70;;;14.96;100.00;96316.72;6119263;23;20009;-71
2023/09/07 03:56:11;;;;;;;10.18;8.10;;;16.00;76.70;;;14.91;100.00;96312.03;6118005;23;20012;-71
2023/09/07 03:58:37;;;;;;;8.00;5.97;;;15.90;77.00;;;14.88;100.00;96309.00;6117461;23;20039;-69
2023/09/07 04:01:02;;;;;;;8.48;5.78;;;15.80;77.00;;;14.83;100.00;96314.94;6117483;23;20053;-72
2023/09/07 04:03:28;;;;;;;6.38;5.78;;;15.80;77.10;;;14.78;100.00;96316.59;6093402;23;20061;-71
2023/09/07 04:05:54;;;;;;;6.65;5.90;;;15.70;77.10;;;14.76;100.00;96323.94;6119419;23;20006;-71
2023/09/07 04:08:20;;;;;;;7.35;5.85;;;15.70;77.30;;;14.74;100.00;96320.69;6093636;23;20068;-71
2023/09/07 04:10:45;;;;;;;7.10;5.70;;;15.70;77.30;;;14.70;100.00;96315.78;6117234;23;20010;-71
2023/09/07 04:13:11;;;;;;;9.48;5.68;;;15.70;77.40;;;14.70;100.00;96313.13;6117697;23;20009;-72
2023/09/07 04:15:44;;;;;;;66.70;57.58;;;15.80;77.50;;;14.72;100.00;96322.72;6117388;23;20025;-71
2023/09/07 04:18:12;;;;;;;40.35;35.67;;;15.70;77.50;;;14.71;100.00;96319.28;6117686;23;20014;-72
2023/09/07 04:20:39;;;;;;;13.10;11.18;;;15.70;77.80;;;14.69;100.00;96323.94;6093611;23;20435;-72
2023/09/07 04:23:05;;;;;;;8.10;7.15;;;15.70;77.80;;;14.67;100.00;96332.09;6093767;23;20010;-71
2023/09/07 04:25:32;;;;;;;9.15;6.65;;;15.70;77.90;;;14.64;100.00;96332.50;6117784;23;20030;-72
2023/09/07 04:27:58;;;;;;;7.15;6.45;;;15.70;78.00;;;14.63;100.00;96336.19;6119185;23;20017;-71
2023/09/07 04:30:24;;;;;;;19.50;12.43;;;15.70;78.10;;;14.62;100.00;96331.09;6117609;23;20016;-71
2023/09/07 04:32:49;;;;;;;34.50;30.75;;;15.70;78.00;;;14.58;100.00;96338.66;6069663;23;20356;-71
2023/09/07 04:35:15;;;;;;;10.55;9.30;;;15.60;78.20;;;14.57;100.00;96342.31;6067799;23;20088;-71
2023/09/07 04:37:45;;;;;;;9.95;6.80;;;15.60;78.20;;;14.56;100.00;96339.88;6118717;23;20009;-71
2023/09/07 04:40:12;;;;;;;8.95;5.70;;;15.60;78.40;;;14.54;100.00;96340.09;6069933;23;20018;-71
2023/09/07 04:42:38;;;;;;;9.00;6.05;;;15.60;78.40;;;14.51;100.00;96343.16;6117330;23;20013;-71
2023/09/07 04:45:05;;;;;;;6.95;5.78;;;15.60;78.40;;;14.52;100.00;96339.47;6092439;23;20021;-71
2023/09/07 04:47:31;;;;;;;6.63;5.85;;;15.60;78.40;;;14.52;100.00;96338.66;6117242;23;20030;-70
2023/09/07 04:49:57;;;;;;;9.07;6.32;;;15.60;78.30;;;14.51;100.00;96342.34;6117687;23;20049;-71
2023/09/07 04:52:23;;;;;;;8.77;6.70;;;15.50;78.30;;;14.50;100.00;96341.53;6092790;23;20029;-70
2023/09/07 04:54:49;;;;;;;7.50;6.75;;;15.50;78.10;;;14.45;100.00;96343.97;6093101;23;20018;-69
2023/09/07 04:57:20;;;;;;;8.27;6.47;;;15.60;78.30;;;14.46;100.00;96335.00;6117327;23;20033;-70
2023/09/07 04:59:46;;;;;;;7.53;6.72;;;15.50;78.40;;;14.44;100.00;96336.22;6093312;23;20020;-68
2023/09/07 05:02:12;;;;;;;7.28;6.28;;;15.50;78.50;;;14.43;100.00;96335.41;6117221;23;20009;-69
2023/09/07 05:04:38;;;;;;;7.30;6.60;;;15.50;78.50;;;14.46;100.00;96335.00;6117043;23;20435;-72
2023/09/07 05:07:04;;;;;;;7.20;5.88;;;15.50;78.50;;;14.47;100.00;96349.84;6118794;23;20010;-71
2023/09/07 05:09:31;;;;;;;7.18;6.47;;;15.60;78.50;;;14.46;100.00;96340.28;6117230;23;20293;-72
2023/09/07 05:11:56;;;;;;;8.52;5.80;;;15.60;78.40;;;14.48;100.00;96342.72;6044906;23;20021;-70
2023/09/07 05:14:24;;;;;;;7.28;6.05;;;15.60;78.20;;;14.48;100.00;96338.25;6118963;23;20081;-70
2023/09/07 05:16:50;;;;;;;6.50;5.85;;;15.60;78.30;;;14.49;100.00;96349.69;6092895;23;20042;-71
2023/09/07 05:19:16;;;;;;;8.02;5.95;;;15.60;78.30;;;14.49;100.00;96350.50;6092983;23;20088;-71
2023/09/07 05:21:41;;;;;;;6.88;6.20;;;15.60;78.20;;;14.52;100.00;96347.41;6092222;23;20006;-71
2023/09/07 05:24:07;;;;;;;7.07;6.28;;;15.70;78.30;;;14.53;100.00;96346.41;6116819;23;20013;-70
2023/09/07 05:26:33;;;;;;;8.10;6.10;;;15.70;78.60;;;14.55;100.00;96348.84;6118859;23;20006;-70
2023/09/07 05:28:59;;;;;;;8.73;6.63;;;15.80;78.70;;;14.55;100.00;96347.00;6092450;23;20073;-71
2023/09/07 05:31:24;;;;;;;23.55;20.98;;;15.80;78.90;;;14.55;100.00;96354.94;6068006;23;20021;-70
2023/09/07 05:33:51;;;;;;;37.40;29.77;;;15.80;78.90;;;14.58;100.00;96359.00;6117829;23;20085;-71
2023/09/07 05:36:17;;;;;;;15.60;12.52;;;15.80;79.00;;;14.59;100.00;96361.44;6091043;23;20439;-71
2023/09/07 05:38:43;;;;;;;11.02;7.82;;;15.90;79.20;;;14.62;100.00;96363.69;6116840;23;20009;-71
2023/09/07 05:41:09;;;;;;;7.72;6.85;;;16.00;79.00;;;14.70;100.00;96371.38;6092933;23;20352;-71
2023/09/07 05:43:34;;;;;;;18.17;6.78;;;16.00;78.90;;;14.77;100.00;96363.44;6116898;23;20403;-70
2023/09/07 05:46:00;;;;;;;9.98;7.18;;;16.10;78.80;;;14.84;100.00;96366.06;6117314;23;20467;-71
2023/09/07 05:48:26;;;;;;;11.30;6.85;;;16.20;78.50;;;14.93;100.00;96367.44;6117269;23;20014;-71
2023/09/07 05:50:51;;;;;;;11.80;7.03;;;16.40;78.50;;;15.01;100.00;96369.88;6092569;23;20017;-70
2023/09/07 05:53:20;;;;;;;12.18;7.78;;;16.50;78.60;;;15.11;100.00;96375.53;6117860;23;20014;-69
2023/09/07 05:55:45;;;;;;;13.85;8.30;;;16.60;78.50;;;15.19;100.00;96383.25;6117091;23;20013;-68
2023/09/07 05:58:12;;;;;;;8.90;7.18;;;16.60;78.40;;;15.27;100.00;96384.84;6117540;23;20010;-69
2023/09/07 06:00:39;;;;;;;12.40;7.68;;;16.70;78.20;;;15.35;100.00;96386.44;6092534;23;20013;-66
2023/09/07 06:03:05;;;;;;;11.02;7.28;;;16.80;78.00;;;15.43;100.00;96388.84;6069248;23;20029;-72
2023/09/07 06:05:31;;;;;;;11.07;7.35;;;16.80;77.70;;;15.48;100.00;96381.88;6094282;23;20005;-70
2023/09/07 06:07:57;;;;;;;9.10;7.00;;;17.00;77.60;;;15.57;100.00;96387.72;6094416;23;20092;-72
2023/09/07 06:10:23;;;;;;;8.75;7.20;;;17.00;77.40;;;15.65;100.00;96384.06;6094389;23;20468;-72
2023/09/07 06:12:49;;;;;;;8.63;7.13;;;17.10;76.80;;;15.71;100.00;96370.75;6118174;23;20089;-71
2023/09/07 06:15:15;;;;;;;8.32;6.93;;;17.20;76.90;;;15.79;100.00;96377.63;6094553;23;20391;-71
2023/09/07 06:17:40;;;;;;;8.85;7.13;;;17.20;76.90;;;15.86;100.00;96373.94;6069906;23;20089;-69
2023/09/07 06:20:08;;;;;;;9.65;7.72;;;17.40;76.50;;;15.95;100.00;96376.31;6069732;23;20341;-71
2023/09/07 06:22:34;;;;;;;6.43;5.30;;;17.60;76.30;;;16.03;100.00;96376.03;6113159;23;20038;-72
2023/09/07 06:24:59;;;;;;;10.18;6.70;;;17.70;75.50;;;16.12;100.00;96383.53;6117602;23;20305;-72
2023/09/07 06:27:25;;;;;;;8.68;6.38;;;17.80;75.00;;;16.21;100.00;96376.09;6094041;23;20014;-63
2023/09/07 06:29:51;;;;;;;7.65;6.80;;;17.90;74.80;;;16.27;100.00;96377.88;6133559;23;20029;-64
2023/09/07 06:32:18;;;;;;;7.70;6.53;;;17.90;74.40;;;16.35;100.00;96380.25;6089554;23;20037;-63
2023/09/07 06:34:44;;;;;;;8.98;6.68;;;18.00;74.20;;;16.43;100.00;96379.97;6113098;23;20010;-64
2023/09/07 06:37:11;;;;;;;8.05;6.72;;;18.10;73.30;;;16.53;100.00;96375.00;6107549;23;20381;-64
2023/09/07 06:39:37;;;;;;;13.00;9.82;;;18.20;72.90;;;16.62;100.00;96374.69;6108029;23;20077;-64
2023/09/07 06:42:03;;;;;;;10.90;8.30;;;18.20;73.20;;;16.71;100.00;96373.41;6107830;23;20053;-64
2023/09/07 06:44:29;;;;;;;8.00;7.18;;;18.30;72.60;;;16.78;100.00;96376.81;6108952;23;20006;-64
2023/09/07 06:46:55;;;;;;;7.22;6.47;;;18.40;72.80;;;16.85;100.00;96372.22;6108544;23;20360;-63
2023/09/07 06:49:21;;;;;;;7.88;6.82;;;18.50;72.20;;;16.96;100.00;96368.00;6108127;23;20014;-64
2023/09/07 06:51:47;;;;;;;8.52;6.97;;;18.60;72.50;;;17.05;100.00;96375.47;6132236;23;20025;-64
2023/09/07 06:54:13;;;;;;;10.82;7.03;;;18.60;72.20;;;17.15;100.00;96381.06;6133263;23;20010;-62
2023/09/07 06:56:38;;;;;;;8.40;6.80;;;18.80;71.60;;;17.26;100.00;96389.34;6108540;23;20017;-64
2023/09/07 06:59:04;;;;;;;11.95;6.75;;;19.00;71.90;;;17.39;100.00;96383.84;6109289;23;20018;-63
2023/09/07 07:01:30;;;;;;;8.02;6.10;;;19.20;71.20;;;17.54;100.00;96386.91;6133269;23;20136;-64
2023/09/07 07:03:56;;;;;;;7.25;6.53;;;19.40;70.70;;;17.70;100.00;96390.84;6132858;23;20002;-64
2023/09/07 07:06:23;;;;;;;7.80;6.82;;;19.60;70.10;;;17.87;100.00;96385.66;6108550;23;20050;-63
2023/09/07 07:08:49;;;;;;;7.63;6.28;;;19.90;68.60;;;18.03;100.00;96385.81;6109405;23;20006;-64
2023/09/07 07:11:14;;;;;;;7.85;6.15;;;20.20;67.40;;;18.26;100.00;96382.38;6132597;23;20025;-62
2023/09/07 07:13:40;;;;;;;7.47;5.82;;;20.70;66.40;;;18.50;98.41;96382.38;6133271;23;20030;-63
2023/09/07 07:16:06;;;;;;;10.60;5.70;;;21.50;63.50;;;18.74;97.53;96375.22;6097292;23;20018;-64
2023/09/07 07:18:32;;;;;;;7.35;6.18;;;22.10;62.30;;;19.03;96.40;96376.13;6084443;23;20029;-63
2023/09/07 07:20:58;;;;;;;10.15;5.82;;;22.60;59.70;;;19.37;95.79;96375.22;6084298;23;20038;-63
2023/09/07 07:23:23;;;;;;;8.13;5.55;;;23.10;58.80;;;19.70;93.48;96384.41;6109179;23;20009;-64
2023/09/07 07:25:51;;;;;;;9.85;5.60;;;23.60;56.70;;;20.05;92.61;96377.00;6109783;23;20017;-64
2023/09/07 07:28:16;;;;;;;10.85;5.30;;;24.10;56.10;;;20.46;91.97;96378.50;6109219;23;20408;-65
2023/09/07 07:30:42;;;;;;;7.00;5.15;;;24.60;55.10;;;20.88;90.56;96379.88;6084497;23;20026;-63
2023/09/07 07:33:08;;;;;;;9.15;5.13;;;25.00;53.90;;;21.28;87.99;96385.78;6108649;23;20416;-63
2023/09/07 07:35:37;;;;;;;5.78;5.07;;;25.30;52.60;;;21.72;84.54;96377.69;6081738;23;20514;-64
2023/09/07 07:38:03;;;;;;;6.07;4.78;;;25.60;51.00;;;22.15;80.79;96373.28;6132345;23;20045;-63
2023/09/07 07:40:32;;;;;;;5.47;4.53;;;26.00;49.90;;;22.66;77.61;96368.34;6083999;23;20402;-62
2023/09/07 07:42:58;;;;;;;9.65;8.02;;;26.50;49.90;;;23.07;76.97;96369.38;6132256;23;20002;-64
2023/09/07 07:45:23;;;;;;;16.42;14.63;;;26.70;48.80;;;23.51;75.20;96367.13;6134143;23;20017;-64
2023/09/07 07:47:49;;;;;;;9.38;5.82;;;27.10;48.10;;;23.93;71.78;96368.84;6108166;23;20537;-63
2023/09/07 07:50:16;;;;;;;6.80;4.65;;;27.30;46.90;;;24.21;70.26;96357.59;6084213;23;20021;-65
2023/09/07 07:52:42;;;;;;;6.43;4.90;;;27.60;46.60;;;24.51;68.74;96361.38;6131926;23;20010;-65
2023/09/07 07:55:09;;;;;;;7.38;4.72;;;27.80;45.40;;;24.70;67.25;96359.75;6109091;23;20021;-64
2023/09/07 07:57:35;;;;;;;8.75;7.63;;;28.00;45.90;;;24.91;66.79;96358.63;6132780;23;20128;-63
2023/09/07 08:00:03;;;;;;;9.82;6.30;;;28.10;45.60;;;25.17;65.43;96350.47;6109128;23;20007;-63
2023/09/07 08:02:28;;;;;;;5.15;4.47;;;28.50;44.80;;;25.39;64.80;96345.53;6132101;23;20002;-65
2023/09/07 08:04:54;;;;;;;7.70;4.70;;;28.70;45.00;;;25.59;64.60;96350.81;6133480;23;20017;-65
2023/09/07 08:07:20;;;;;;;8.30;4.82;;;29.00;44.80;;;25.85;62.98;96342.59;6111538;23;20014;-62
2023/09/07 08:09:46;;;;;;;6.20;4.43;;;29.30;43.40;;;26.00;62.35;96334.41;6108748;23;20042;-64
2023/09/07 08:12:12;;;;;;;5.30;4.80;;;29.40;43.60;;;26.18;61.48;96343.69;6133492;23;20002;-62
2023/09/07 08:14:38;;;;;;;5.40;4.60;;;29.60;43.40;;;26.34;61.09;96328.19;6109410;23;20073;-63
2023/09/07 08:17:04;;;;;;;10.80;5.20;;;29.60;42.70;;;26.50;60.23;96327.00;6109241;23;20377;-64
2023/09/07 08:19:30;;;;;;;5.85;4.68;;;29.90;42.90;;;26.63;59.11;96325.50;6108909;23;20381;-65
2023/09/07 08:21:55;;;;;;;5.88;4.35;;;29.90;42.30;;;26.76;59.22;96331.06;6132834;23;20013;-63
2023/09/07 08:24:21;;;;;;;6.95;4.38;;;30.00;42.90;;;26.83;58.91;96318.00;6110657;23;20089;-62
2023/09/07 08:26:51;;;;;;;6.18;5.18;;;30.10;42.40;;;27.03;58.67;96322.41;6110118;23;20049;-63
2023/09/07 08:29:20;;;;;;;6.65;4.50;;;30.30;42.80;;;27.15;58.32;96314.69;6111003;23;20387;-62
2023/09/07 08:31:47;;;;;;;6.17;4.60;;;30.30;42.20;;;27.34;57.83;96320.13;6110596;23;20010;-62
2023/09/07 08:34:14;;;;;;;6.13;4.15;;;30.40;43.30;;;27.48;56.88;96314.81;6085400;23;20006;-62
2023/09/07 08:36:40;;;;;;;8.25;4.40;;;30.60;41.80;;;27.63;56.39;96311.13;6082535;23;20875;-63
2023/09/07 08:39:07;;;;;;;5.32;4.43;;;30.80;41.50;;;27.70;55.69;96315.06;6132945;23;20053;-64
2023/09/07 08:41:43;;;;;;;5.53;4.30;;;30.70;41.20;;;27.78;53.28;96302.78;6107260;23;20006;-63
2023/09/07 08:44:10;;;;;;;7.68;3.95;;;30.80;41.20;;;27.95;54.78;96311.16;6108497;23;20006;-63
2023/09/07 08:46:37;;;;;;;6.82;3.45;;;31.10;41.10;;;28.04;54.52;96312.09;6132866;23;20012;-64
2023/09/07 08:49:04;;;;;;;5.30;3.88;;;31.10;41.30;;;28.24;53.97;96310.16;6133672;23;20053;-64
2023/09/07 08:51:31;;;;;;;5.95;3.83;;;31.40;40.50;;;28.43;52.87;96312.84;6108678;23;20006;-63
2023/09/07 08:54:03;;;;;;;4.72;3.83;;;31.50;40.40;;;28.47;51.02;96286.78;6107720;23;20337;-64
2023/09/07 08:56:29;;;;;;;9.57;3.78;;;31.40;39.80;;;28.59;52.44;96300.66;6132362;23;20073;-63
2023/09/07 08:58:55;;;;;;;5.00;4.15;;;31.50;40.50;;;28.70;51.16;96293.94;6133104;23;20100;-65
2023/09/07 09:01:21;;;;;;;4.03;3.25;;;31.40;39.10;;;28.81;51.09;96291.84;6084189;23;20036;-64
2023/09/07 09:03:48;;;;;;;5.28;3.45;;;31.60;40.10;;;28.93;51.24;96289.47;6132722;23;20073;-64
2023/09/07 09:06:14;;;;;;;5.60;3.47;;;31.70;40.30;;;29.06;51.09;96287.88;6109818;23;20010;-62
2023/09/07 09:08:58;;;;;;;4.25;3.55;;;31.90;39.90;;;29.22;49.65;96276.41;6109029;23;20498;-64
2023/09/07 09:11:24;;;;;;;5.10;3.80;;;32.10;40.10;;;29.38;51.18;96290.41;6094178;23;20010;-64
2023/09/07 09:13:52;;;;;;;5.07;3.55;;;32.10;40.30;;;29.59;51.06;96288.09;6018299;23;20427;-63
2023/09/07 09:16:18;;;;;;;4.93;3.25;;;32.40;39.70;;;29.80;49.97;96283.78;6108662;23;20006;-63
2023/09/07 09:18:55;;;;;;;5.13;3.50;;;32.60;38.40;;;29.99;46.64;96255.69;6108457;23;20412;-64
2023/09/07 09:21:22;;;;;;;4.60;3.60;;;32.60;38.00;;;30.22;48.59;96284.44;6107773;23;20006;-66
2023/09/07 09:23:50;;;;;;;4.85;3.55;;;32.80;39.00;;;30.41;47.95;96271.47;6083220;23;20029;-65
2023/09/07 09:26:16;;;;;;;4.93;3.42;;;33.10;37.30;;;30.58;47.69;96268.03;6108747;23;20014;-64
2023/09/07 09:28:42;;;;;;;5.50;3.35;;;33.20;37.50;;;30.78;46.65;96274.88;6109014;23;20017;-62
2023/09/07 09:31:12;;;;;;;4.18;3.22;;;33.50;37.80;;;30.96;46.42;96262.13;6132525;23;20625;-63
2023/09/07 09:33:41;;;;;;;4.82;3.08;;;33.50;37.50;;;31.19;44.55;96238.38;6132389;23;20014;-63
2023/09/07 09:36:07;;;;;;;6.53;3.88;;;33.60;37.00;;;31.40;45.01;96242.09;6108150;23;20077;-62
2023/09/07 09:38:34;;;;;;;5.85;3.35;;;33.80;36.00;;;31.50;44.52;96241.78;6109856;23;20089;-63
2023/09/07 09:40:59;;;;;;;6.22;3.40;;;33.90;36.00;;;31.67;44.41;96238.25;6110554;23;20018;-64
2023/09/07 09:43:26;;;;;;;5.10;3.20;;;34.10;35.80;;;31.85;42.85;96230.91;6111929;23;20009;-64
2023/09/07 09:45:52;;;;;;;5.10;3.20;;;34.30;35.00;;;31.92;41.79;96233.97;6086888;23;20021;-63
2023/09/07 09:48:19;;;;;;;6.25;3.78;;;34.20;34.80;;;32.12;42.55;96235.97;6133614;23;20026;-63
2023/09/07 09:50:48;;;;;;;4.78;3.30;;;34.70;35.80;;;32.32;41.28;96215.47;6134654;23;20006;-64
2023/09/07 09:53:18;;;;;;;6.75;3.25;;;34.50;33.70;;;32.50;40.10;96208.03;6085683;23;20759;-65
2023/09/07 09:55:47;;;;;;;3.22;2.83;;;34.80;34.30;;;32.70;39.58;96204.56;6134075;23;20010;-64
2023/09/07 09:58:14;;;;;;;5.15;3.05;;;35.00;34.60;;;32.89;39.97;96198.75;6086197;23;20032;-63
2023/09/07 10:00:48;;;;;;;5.10;2.90;;;35.30;33.40;;;33.06;38.29;96195.13;6110340;23;20010;-64
2023/09/07 10:03:30;;;;;;;3.17;2.85;;;35.50;33.30;;;33.37;37.46;96190.09;6085747;23;20032;-63
2023/09/07 10:05:55;;;;;;;3.83;3.05;;;35.90;32.70;;;33.64;39.36;96204.31;6110429;23;20704;-65
2023/09/07 10:08:23;;;;;;;3.45;2.67;;;36.10;31.40;;;33.98;38.45;96204.00;6110609;23;20081;-63
2023/09/07 10:10:55;;;;;;;5.93;2.72;;;36.50;31.60;;;34.50;38.17;96199.94;6086182;23;20576;-63
2023/09/07 10:13:32;;;;;;;3.05;2.35;;;36.90;31.30;;;35.01;34.92;96168.38;6110352;23;20363;-64